createdAt,value
2022-09-12T00:00:25.660Z,94.48
2022-09-12T00:01:25.775Z,94.48
2022-09-12T00:02:25.645Z,94.27
2022-09-12T00:03:25.608Z,93.16
2022-09-12T00:04:25.595Z,93.06
2022-09-12T00:05:25.571Z,93.06
2022-09-12T00:06:25.571Z,93.77
2022-09-12T00:07:25.560Z,93.67
2022-09-12T00:08:25.558Z,94.27
2022-09-12T00:09:25.559Z,94.78
2022-09-12T00:10:25.523Z,94.78
2022-09-12T00:11:25.509Z,94.89
2022-09-12T00:12:25.520Z,94.98
2022-09-12T00:13:25.500Z,93.87
2022-09-12T00:14:25.489Z,93.26
2022-09-12T00:15:25.491Z,94.18
2022-09-12T00:16:25.516Z,93.87
2022-09-12T00:17:25.445Z,93.57
2022-09-12T00:18:25.447Z,93.77
2022-09-12T00:19:25.439Z,93.16
2022-09-12T00:20:25.420Z,92.76
2022-09-12T00:21:25.408Z,93.67
2022-09-12T00:22:25.405Z,93.87
2022-09-12T00:23:25.386Z,93.67
2022-09-12T00:24:25.384Z,94.07
2022-09-12T00:25:25.369Z,94.48
2022-09-12T00:26:25.355Z,94.18
2022-09-12T00:27:25.348Z,93.97
2022-09-12T00:28:25.353Z,94.27
2022-09-12T00:29:25.326Z,94.27
2022-09-12T00:30:25.309Z,94.18
2022-09-12T00:31:25.360Z,94.18
2022-09-12T00:32:25.297Z,94.48
2022-09-12T00:33:25.280Z,94.98
2022-09-12T00:34:25.319Z,94.68
2022-09-12T00:35:25.300Z,94.38
2022-09-12T00:36:25.245Z,94.48
2022-09-12T00:37:25.402Z,94.18
2022-09-12T00:38:25.235Z,93.87
2022-09-12T00:39:25.226Z,94.07
2022-09-12T00:40:25.204Z,94.48
2022-09-12T00:41:25.207Z,94.27
2022-09-12T00:42:25.186Z,93.46
2022-09-12T00:43:25.173Z,93.16
2022-09-12T00:44:25.174Z,93.97
2022-09-12T00:45:25.198Z,93.57
2022-09-12T00:46:25.137Z,93.46
2022-09-12T00:47:25.151Z,93.26
2022-09-12T00:48:25.119Z,93.16
2022-09-12T00:49:25.141Z,92.60
2022-09-12T00:50:25.122Z,93.16
2022-09-12T00:51:25.123Z,93.21
2022-09-12T00:52:25.073Z,93.21
2022-09-12T00:53:25.096Z,93.21
2022-09-12T00:54:25.064Z,93.30
2022-09-12T00:55:25.045Z,92.90
2022-09-12T00:56:25.047Z,93.51
2022-09-12T00:57:25.040Z,92.70
2022-09-12T00:58:25.006Z,92.90
2022-09-12T00:59:25.016Z,91.89
2022-09-12T01:00:24.991Z,92.70
2022-09-12T01:01:27.327Z,93.51
2022-09-12T01:02:25.004Z,93.21
2022-09-12T01:03:24.974Z,93.21
2022-09-12T01:04:24.988Z,93.61
2022-09-12T01:05:24.956Z,93.81
2022-09-12T01:06:24.923Z,94.02
2022-09-12T01:07:24.912Z,93.61
2022-09-12T01:08:24.905Z,93.81
2022-09-12T01:09:24.920Z,93.51
2022-09-12T01:10:24.877Z,93.10
2022-09-12T01:11:24.876Z,93.41
2022-09-12T01:12:24.865Z,94.42
2022-09-12T01:13:24.856Z,94.73
2022-09-12T01:14:24.846Z,94.32
2022-09-12T01:15:24.832Z,93.91
2022-09-12T01:16:24.860Z,93.91
2022-09-12T01:17:24.809Z,94.62
2022-09-12T01:18:24.793Z,94.12
2022-09-12T01:19:24.805Z,94.02
2022-09-12T01:20:24.778Z,94.22
2022-09-12T01:21:24.771Z,94.93
2022-09-12T01:22:24.748Z,94.22
2022-09-12T01:23:24.750Z,93.81
2022-09-12T01:24:24.747Z,93.21
2022-09-12T01:25:24.735Z,92.60
2022-09-12T01:26:24.711Z,93.61
2022-09-12T01:27:24.704Z,93.71
2022-09-12T01:28:24.690Z,93.51
2022-09-12T01:29:24.691Z,93.30
2022-09-12T01:30:24.680Z,93.45
2022-09-12T01:31:24.661Z,93.15
2022-09-12T01:32:24.679Z,93.45
2022-09-12T01:33:24.647Z,93.35
2022-09-12T01:34:24.646Z,93.65
2022-09-12T01:35:24.611Z,93.15
2022-09-12T01:36:24.628Z,93.55
2022-09-12T01:37:24.601Z,92.94
2022-09-12T01:38:24.586Z,93.76
2022-09-12T01:39:24.655Z,93.96
2022-09-12T01:40:24.562Z,94.17
2022-09-12T01:41:24.634Z,93.45
2022-09-12T01:42:24.643Z,93.96
2022-09-12T01:43:24.539Z,93.76
2022-09-12T01:44:24.530Z,93.86
2022-09-12T01:45:24.526Z,93.86
2022-09-12T01:46:24.502Z,94.57
2022-09-12T01:47:24.488Z,94.67
2022-09-12T01:48:24.479Z,94.26
2022-09-12T01:49:24.584Z,94.87
2022-09-12T01:50:24.465Z,94.46
2022-09-12T01:51:24.449Z,94.57
2022-09-12T01:52:24.585Z,94.57
2022-09-12T01:53:24.665Z,94.17
2022-09-12T01:54:24.597Z,93.96
2022-09-12T01:55:24.407Z,94.17
2022-09-12T01:56:24.396Z,94.06
2022-09-12T01:57:24.381Z,92.94
2022-09-12T01:58:24.365Z,92.94
2022-09-12T01:59:24.598Z,93.45
2022-09-12T02:00:24.351Z,93.86
2022-09-12T02:01:24.387Z,93.35
2022-09-12T02:02:24.636Z,93.45
2022-09-12T02:03:24.324Z,94.37
2022-09-12T02:04:24.313Z,94.06
2022-09-12T02:05:24.294Z,93.96
2022-09-12T02:06:24.293Z,93.96
2022-09-12T02:07:24.284Z,94.37
2022-09-12T02:08:24.260Z,94.46
2022-09-12T02:09:24.597Z,94.06
2022-09-12T02:10:24.241Z,94.17
2022-09-12T02:11:24.238Z,93.65
2022-09-12T02:12:24.213Z,94.57
2022-09-12T02:13:24.220Z,94.67
2022-09-12T02:14:24.215Z,93.96
2022-09-12T02:15:24.187Z,93.76
2022-09-12T02:16:24.213Z,94.06
2022-09-12T02:17:24.167Z,94.06
2022-09-12T02:18:24.151Z,94.26
2022-09-12T02:19:24.165Z,93.05
2022-09-12T02:20:44.347Z,92.74
2022-09-12T02:21:24.136Z,92.64
2022-09-12T02:22:24.120Z,92.68
2022-09-12T02:23:24.106Z,92.99
2022-09-12T02:24:24.112Z,93.49
2022-09-12T02:25:24.097Z,93.90
2022-09-12T02:26:24.079Z,93.49
2022-09-12T02:27:24.077Z,93.80
2022-09-12T02:28:24.056Z,94.21
2022-09-12T02:29:24.062Z,94.51
2022-09-12T02:30:24.064Z,93.90
2022-09-12T02:31:24.035Z,93.40
2022-09-12T02:32:24.010Z,93.29
2022-09-12T02:33:24.000Z,93.60
2022-09-12T02:34:24.088Z,93.40
2022-09-12T02:35:24.030Z,93.29
2022-09-12T02:36:23.970Z,93.29
2022-09-12T02:37:23.966Z,93.40
2022-09-12T02:38:23.949Z,93.49
2022-09-12T02:39:23.956Z,93.70
2022-09-12T02:40:24.053Z,93.49
2022-09-12T02:41:23.993Z,93.70
2022-09-12T02:42:23.901Z,93.40
2022-09-12T02:43:23.891Z,93.29
2022-09-12T02:44:23.903Z,93.40
2022-09-12T02:45:23.883Z,93.33
2022-09-12T02:46:23.860Z,93.49
2022-09-12T02:47:23.851Z,93.64
2022-09-12T02:48:23.842Z,93.64
2022-09-12T02:49:23.843Z,93.54
2022-09-12T02:50:23.819Z,93.54
2022-09-12T02:51:23.991Z,93.64
2022-09-12T02:52:23.803Z,93.74
2022-09-12T02:53:24.022Z,93.64
2022-09-12T02:54:23.791Z,93.64
2022-09-12T02:55:23.766Z,94.05
2022-09-12T02:56:23.748Z,94.66
2022-09-12T02:57:23.743Z,94.66
2022-09-12T02:58:23.743Z,94.66
2022-09-12T02:59:23.748Z,94.96
2022-09-12T03:00:23.987Z,95.53
2022-09-12T03:01:23.739Z,95.12
2022-09-12T03:02:23.717Z,94.82
2022-09-12T03:03:23.754Z,95.42
2022-09-12T03:04:23.803Z,95.42
2022-09-12T03:05:23.821Z,95.02
2022-09-12T03:06:23.650Z,94.92
2022-09-12T03:07:23.736Z,94.21
2022-09-12T03:08:23.628Z,93.90
2022-09-12T03:09:23.627Z,93.60
2022-09-12T03:10:23.621Z,93.80
2022-09-12T03:11:23.603Z,94.21
2022-09-12T03:12:23.589Z,94.31
2022-09-12T03:13:23.584Z,94.21
2022-09-12T03:14:23.567Z,94.61
2022-09-12T03:15:23.552Z,94.92
2022-09-12T03:16:23.597Z,94.92
2022-09-12T03:17:23.539Z,94.41
2022-09-12T03:18:23.565Z,93.70
2022-09-12T03:19:23.526Z,93.40
2022-09-12T03:20:23.505Z,93.40
2022-09-12T03:21:23.506Z,93.19
2022-09-12T03:22:23.487Z,93.24
2022-09-12T03:23:23.478Z,93.74
2022-09-12T03:24:23.460Z,94.25
2022-09-12T03:25:23.467Z,94.35
2022-09-12T03:26:23.439Z,95.37
2022-09-12T03:27:23.433Z,95.06
2022-09-12T03:28:23.418Z,94.66
2022-09-12T03:29:23.426Z,94.35
2022-09-12T03:30:23.459Z,94.05
2022-09-12T03:31:23.384Z,93.64
2022-09-12T03:32:23.373Z,94.35
2022-09-12T03:33:23.360Z,94.96
2022-09-12T03:34:23.368Z,94.76
2022-09-12T03:35:23.421Z,94.05
2022-09-12T03:36:23.336Z,93.54
2022-09-12T03:37:23.334Z,93.54
2022-09-12T03:38:23.304Z,93.44
2022-09-12T03:39:23.320Z,93.54
2022-09-12T03:40:23.296Z,94.15
2022-09-12T03:41:23.276Z,95.17
2022-09-12T03:42:23.264Z,94.76
2022-09-12T03:43:23.249Z,95.06
2022-09-12T03:44:23.255Z,95.67
2022-09-12T03:45:23.244Z,95.57
2022-09-12T03:46:23.229Z,94.96
2022-09-12T03:47:23.209Z,94.35
2022-09-12T03:48:23.198Z,94.56
2022-09-12T03:49:23.223Z,94.45
2022-09-12T03:50:23.189Z,94.25
2022-09-12T03:51:23.199Z,94.56
2022-09-12T03:52:23.161Z,94.76
2022-09-12T03:53:23.173Z,94.25
2022-09-12T03:54:23.180Z,94.29
2022-09-12T03:55:23.130Z,94.66
2022-09-12T03:56:23.112Z,95.01
2022-09-12T03:57:23.117Z,95.31
2022-09-12T03:58:23.093Z,95.31
2022-09-12T03:59:23.163Z,95.17
2022-09-12T04:00:23.077Z,94.90
2022-09-12T04:01:23.094Z,94.40
2022-09-12T04:02:23.122Z,93.68
2022-09-12T04:03:23.061Z,94.80
2022-09-12T04:04:23.047Z,95.31
2022-09-12T04:05:23.017Z,94.80
2022-09-12T04:06:23.005Z,94.50
2022-09-12T04:07:22.999Z,94.50
2022-09-12T04:08:22.937Z,94.40
2022-09-12T04:09:22.992Z,94.70
2022-09-12T04:10:22.969Z,94.80
2022-09-12T04:11:22.961Z,94.90
2022-09-12T04:12:22.943Z,95.31
2022-09-12T04:13:22.947Z,95.10
2022-09-12T04:14:22.897Z,94.70
2022-09-12T04:15:22.882Z,94.90
2022-09-12T04:16:22.877Z,94.40
2022-09-12T04:17:22.843Z,94.70
2022-09-12T04:18:22.832Z,94.70
2022-09-12T04:19:22.832Z,94.80
2022-09-12T04:20:22.813Z,94.80
2022-09-12T04:21:22.791Z,94.20
2022-09-12T04:22:22.775Z,94.29
2022-09-12T04:23:22.784Z,94.70
2022-09-12T04:24:22.775Z,95.10
2022-09-12T04:25:22.779Z,94.90
2022-09-12T04:26:22.741Z,95.31
2022-09-12T04:27:22.733Z,95.21
2022-09-12T04:28:22.718Z,95.92
2022-09-12T04:29:22.758Z,94.80
2022-09-12T04:30:22.735Z,94.50
2022-09-12T04:31:22.693Z,94.29
2022-09-12T04:32:22.677Z,93.99
2022-09-12T04:33:22.674Z,93.79
2022-09-12T04:34:22.682Z,93.89
2022-09-12T04:35:22.660Z,94.09
2022-09-12T04:36:22.674Z,94.20
2022-09-12T04:37:22.622Z,94.20
2022-09-12T04:38:22.658Z,94.09
2022-09-12T04:39:22.611Z,94.90
2022-09-12T04:40:22.599Z,94.80
2022-09-12T04:41:22.579Z,94.29
2022-09-12T04:42:22.571Z,94.40
2022-09-12T04:43:22.584Z,94.80
2022-09-12T04:44:22.590Z,95.31
2022-09-12T04:45:22.537Z,95.31
2022-09-12T04:46:22.526Z,95.51
2022-09-12T04:47:22.519Z,95.62
2022-09-12T04:48:22.516Z,95.41
2022-09-12T04:49:22.667Z,95.10
2022-09-12T04:50:22.486Z,95.21
2022-09-12T04:51:22.473Z,95.51
2022-09-12T04:52:22.457Z,95.01
2022-09-12T04:53:22.461Z,95.01
2022-09-12T04:54:22.439Z,94.80
2022-09-12T04:55:22.440Z,94.60
2022-09-12T04:56:22.416Z,95.01
2022-09-12T04:57:22.413Z,94.40
2022-09-12T04:58:22.420Z,94.45
2022-09-12T04:59:22.393Z,94.40
2022-09-12T05:00:22.378Z,94.90
2022-09-12T05:01:22.431Z,95.01
2022-09-12T05:02:22.416Z,94.80
2022-09-12T05:03:22.355Z,94.66
2022-09-12T05:04:22.352Z,94.60
2022-09-12T05:05:22.318Z,94.45
2022-09-12T05:06:22.329Z,94.96
2022-09-12T05:07:22.304Z,94.66
2022-09-12T05:08:22.311Z,94.76
2022-09-12T05:09:22.612Z,95.17
2022-09-12T05:10:22.557Z,95.17
2022-09-12T05:11:25.459Z,94.56
2022-09-12T05:12:22.255Z,94.25
2022-09-12T05:13:22.249Z,94.25
2022-09-12T05:14:22.255Z,94.56
2022-09-12T05:15:22.228Z,94.86
2022-09-12T05:16:22.247Z,94.56
2022-09-12T05:17:22.195Z,94.25
2022-09-12T05:18:22.207Z,93.64
2022-09-12T05:19:22.178Z,93.54
2022-09-12T05:20:22.165Z,94.15
2022-09-12T05:21:22.146Z,93.74
2022-09-12T05:22:22.146Z,93.84
2022-09-12T05:23:22.130Z,93.54
2022-09-12T05:24:22.143Z,93.44
2022-09-12T05:25:22.119Z,93.13
2022-09-12T05:26:22.107Z,93.44
2022-09-12T05:27:22.111Z,93.19
2022-09-12T05:28:22.086Z,93.49
2022-09-12T05:29:22.094Z,93.49
2022-09-12T05:30:22.176Z,93.19
2022-09-12T05:31:22.043Z,93.29
2022-09-12T05:32:22.036Z,93.49
2022-09-12T05:33:25.107Z,93.09
2022-09-12T05:34:22.030Z,93.19
2022-09-12T05:35:22.013Z,92.99
2022-09-12T05:36:22.024Z,92.99
2022-09-12T05:37:21.986Z,92.68
2022-09-12T05:38:21.976Z,92.38
2022-09-12T05:39:22.142Z,92.79
2022-09-12T05:40:21.950Z,92.48
2022-09-12T05:41:24.799Z,92.28
2022-09-12T05:42:21.989Z,92.38
2022-09-12T05:43:21.922Z,92.44
2022-09-12T05:44:21.926Z,92.54
2022-09-12T05:45:22.089Z,92.33
2022-09-12T05:46:21.902Z,92.13
2022-09-12T05:47:21.880Z,92.33
2022-09-12T05:48:21.889Z,92.24
2022-09-12T05:49:21.880Z,92.33
2022-09-12T05:50:21.884Z,92.13
2022-09-12T05:51:21.955Z,92.13
2022-09-12T05:52:21.826Z,92.13
2022-09-12T05:53:21.905Z,92.24
2022-09-12T05:54:21.829Z,93.05
2022-09-12T05:55:21.824Z,93.15
2022-09-12T05:56:21.783Z,92.84
2022-09-12T05:57:21.772Z,92.44
2022-09-12T05:58:21.764Z,92.54
2022-09-12T05:59:21.777Z,92.60
2022-09-12T06:00:21.759Z,92.19
2022-09-12T06:01:21.754Z,92.19
2022-09-12T06:02:21.781Z,92.29
2022-09-12T06:03:21.706Z,92.19
2022-09-12T06:04:21.798Z,92.29
2022-09-12T06:05:21.709Z,91.99
2022-09-12T06:06:21.680Z,91.89
2022-09-12T06:07:21.668Z,91.99
2022-09-12T06:08:21.662Z,91.89
2022-09-12T06:09:21.664Z,92.09
2022-09-12T06:10:21.779Z,92.40
2022-09-12T06:11:21.626Z,92.70
2022-09-12T06:12:21.642Z,92.09
2022-09-12T06:13:21.595Z,91.89
2022-09-12T06:14:21.676Z,91.74
2022-09-12T06:15:21.576Z,91.74
2022-09-12T06:16:21.711Z,91.85
2022-09-12T06:17:21.571Z,91.13
2022-09-12T06:18:21.579Z,91.24
2022-09-12T06:19:21.556Z,91.34
2022-09-12T06:20:21.530Z,91.03
2022-09-12T06:21:21.524Z,91.54
2022-09-12T06:22:21.517Z,91.94
2022-09-12T06:23:21.544Z,91.24
2022-09-12T06:24:21.526Z,91.03
2022-09-12T06:25:21.475Z,91.34
2022-09-12T06:26:21.644Z,91.44
2022-09-12T06:27:21.462Z,91.64
2022-09-12T06:28:21.447Z,91.30
2022-09-12T06:29:21.455Z,90.89
2022-09-12T06:30:25.232Z,91.19
2022-09-12T06:31:21.409Z,91.09
2022-09-12T06:32:21.398Z,90.89
2022-09-12T06:33:21.393Z,90.58
2022-09-12T06:34:21.403Z,90.69
2022-09-12T06:35:21.368Z,90.54
2022-09-12T06:36:21.366Z,90.44
2022-09-12T06:37:21.344Z,90.03
2022-09-12T06:38:21.333Z,89.73
2022-09-12T06:39:21.340Z,89.73
2022-09-12T06:40:21.368Z,89.73
2022-09-12T06:41:21.314Z,89.73
2022-09-12T06:42:21.292Z,89.83
2022-09-12T06:43:21.287Z,89.69
2022-09-12T06:44:21.290Z,89.28
2022-09-12T06:45:21.280Z,89.08
2022-09-12T06:46:21.354Z,89.08
2022-09-12T06:47:21.242Z,89.08
2022-09-12T06:48:21.251Z,89.08
2022-09-12T06:49:21.225Z,89.08
2022-09-12T06:50:21.210Z,88.84
2022-09-12T06:51:21.208Z,88.43
2022-09-12T06:52:21.202Z,87.82
2022-09-12T06:53:21.192Z,87.68
2022-09-12T06:54:21.195Z,87.48
2022-09-12T06:55:25.791Z,87.13
2022-09-12T06:56:21.151Z,86.49
2022-09-12T06:57:21.140Z,84.73
2022-09-12T06:58:21.139Z,83.95
2022-09-12T06:59:21.123Z,82.09
2022-09-12T07:00:21.102Z,80.74
2022-09-12T07:01:21.115Z,79.66
2022-09-12T07:02:21.120Z,78.81
2022-09-12T07:03:21.079Z,77.77
2022-09-12T07:04:21.103Z,77.03
2022-09-12T07:05:21.045Z,76.39
2022-09-12T07:06:21.038Z,75.25
2022-09-12T07:07:21.024Z,74.71
2022-09-12T07:08:21.040Z,74.11
2022-09-12T07:09:21.077Z,72.97
2022-09-12T07:10:22.390Z,72.83
2022-09-12T07:11:20.983Z,71.70
2022-09-12T07:12:20.974Z,70.66
2022-09-12T07:13:21.096Z,70.06
2022-09-12T07:14:20.975Z,70.12
2022-09-12T07:15:20.962Z,69.09
2022-09-12T07:16:21.089Z,68.05
2022-09-12T07:17:20.934Z,67.25
2022-09-12T07:18:20.925Z,67.43
2022-09-12T07:19:20.937Z,67.02
2022-09-12T07:20:20.898Z,66.59
2022-09-12T07:21:20.893Z,66.36
2022-09-12T07:22:20.868Z,65.66
2022-09-12T07:23:20.857Z,65.83
2022-09-12T07:24:20.858Z,64.93
2022-09-12T07:25:20.846Z,64.90
2022-09-12T07:26:20.836Z,63.77
2022-09-12T07:27:20.818Z,63.04
2022-09-12T07:28:20.808Z,62.74
2022-09-12T07:29:37.627Z,62.41
2022-09-12T07:30:20.786Z,62.31
2022-09-12T07:31:20.773Z,62.29
2022-09-12T07:32:20.767Z,60.96
2022-09-12T07:33:20.772Z,60.93
2022-09-12T07:34:20.759Z,60.63
2022-09-12T07:35:21.689Z,59.70
2022-09-12T07:36:20.721Z,60.00
2022-09-12T07:37:20.705Z,59.98
2022-09-12T07:38:20.704Z,59.18
2022-09-12T07:39:20.705Z,58.56
2022-09-12T07:40:20.756Z,58.26
2022-09-12T07:41:20.668Z,57.14
2022-09-12T07:42:20.654Z,57.81
2022-09-12T07:43:20.666Z,56.61
2022-09-12T07:44:20.647Z,56.68
2022-09-12T07:45:20.658Z,56.29
2022-09-12T07:46:20.677Z,56.26
2022-09-12T07:47:20.609Z,55.66
2022-09-12T07:48:20.598Z,55.17
2022-09-12T07:49:20.604Z,54.94
2022-09-12T07:50:20.614Z,55.24
2022-09-12T07:51:20.568Z,54.22
2022-09-12T07:52:20.550Z,55.09
2022-09-12T07:53:20.656Z,54.10
2022-09-12T07:54:20.558Z,54.27
2022-09-12T07:55:20.523Z,53.58
2022-09-12T07:56:20.580Z,52.66
2022-09-12T07:57:20.501Z,52.44
2022-09-12T07:58:20.522Z,52.54
2022-09-12T07:59:41.392Z,52.01
2022-09-12T08:00:20.476Z,52.31
2022-09-12T08:01:20.507Z,51.72
2022-09-12T08:02:20.719Z,52.12
2022-09-12T08:03:20.444Z,52.01
2022-09-12T08:04:20.459Z,51.99
2022-09-12T08:05:20.410Z,51.28
2022-09-12T08:06:20.409Z,49.96
2022-09-12T08:07:20.396Z,50.36
2022-09-12T08:08:20.388Z,50.14
2022-09-12T08:09:20.389Z,49.05
2022-09-12T08:10:20.367Z,52.46
2022-09-12T08:11:20.348Z,54.17
2022-09-12T08:12:20.358Z,57.11
2022-09-12T08:13:20.338Z,54.89
2022-09-12T08:14:20.596Z,53.25
2022-09-12T08:15:20.306Z,51.03
2022-09-12T08:16:20.601Z,50.78
2022-09-12T08:17:20.345Z,49.57
2022-09-12T08:18:20.283Z,49.05
2022-09-12T08:19:20.593Z,49.52
2022-09-12T08:20:20.455Z,49.20
2022-09-12T08:21:20.246Z,48.69
2022-09-12T08:22:20.241Z,48.79
2022-09-12T08:23:20.241Z,47.50
2022-09-12T08:24:20.247Z,49.18
2022-09-12T08:25:20.231Z,49.30
2022-09-12T08:26:20.208Z,48.74
2022-09-12T08:27:20.190Z,50.06
2022-09-12T08:28:20.182Z,52.19
2022-09-12T08:29:20.174Z,49.79
2022-09-12T08:30:20.200Z,49.65
2022-09-12T08:31:20.163Z,47.72
2022-09-12T08:32:20.167Z,46.91
2022-09-12T08:33:20.131Z,46.44
2022-09-12T08:34:20.136Z,47.55
2022-09-12T08:35:20.102Z,48.53
2022-09-12T08:36:20.113Z,53.11
2022-09-12T08:37:20.100Z,54.85
2022-09-12T08:38:20.086Z,56.59
2022-09-12T08:39:20.096Z,56.54
2022-09-12T08:40:20.100Z,56.47
2022-09-12T08:41:20.046Z,57.39
2022-09-12T08:42:20.048Z,60.56
2022-09-12T08:43:20.036Z,59.92
2022-09-12T08:44:20.036Z,60.97
2022-09-12T08:45:20.004Z,62.10
2022-09-12T08:46:20.055Z,63.43
2022-09-12T08:47:19.994Z,62.30
2022-09-12T08:48:19.989Z,62.50
2022-09-12T08:49:20.028Z,60.53
2022-09-12T08:50:20.053Z,62.73
2022-09-12T08:51:19.941Z,63.06
2022-09-12T08:52:19.948Z,64.69
2022-09-12T08:53:19.930Z,64.09
2022-09-12T08:54:19.944Z,64.32
2022-09-12T08:55:19.899Z,64.52
2022-09-12T08:56:20.003Z,66.13
2022-09-12T08:57:19.881Z,67.66
2022-09-12T08:58:19.884Z,68.79
2022-09-12T08:59:20.196Z,66.19
2022-09-12T09:00:19.913Z,66.92
2022-09-12T09:01:19.930Z,65.52
2022-09-12T09:02:19.889Z,66.95
2022-09-12T09:03:19.821Z,67.22
2022-09-12T09:04:19.828Z,66.42
2022-09-12T09:05:19.810Z,66.62
2022-09-12T09:06:19.887Z,67.82
2022-09-12T09:07:19.777Z,65.52
2022-09-12T09:08:19.769Z,66.45
2022-09-12T09:09:19.769Z,66.65
2022-09-12T09:10:19.747Z,67.05
2022-09-12T09:11:19.736Z,66.42
2022-09-12T09:12:19.737Z,67.85
2022-09-12T09:13:19.719Z,68.76
2022-09-12T09:14:19.714Z,66.15
2022-09-12T09:15:19.777Z,66.95
2022-09-12T09:16:19.773Z,70.16
2022-09-12T09:17:19.680Z,66.35
2022-09-12T09:18:19.678Z,66.55
2022-09-12T09:19:19.666Z,66.38
2022-09-12T09:20:21.157Z,65.78
2022-09-12T09:21:19.634Z,66.45
2022-09-12T09:22:19.620Z,67.29
2022-09-12T09:23:19.731Z,66.48
2022-09-12T09:24:19.615Z,67.42
2022-09-12T09:25:22.707Z,67.22
2022-09-12T09:26:19.576Z,66.52
2022-09-12T09:27:37.298Z,67.92
2022-09-12T09:28:19.571Z,68.05
2022-09-12T09:29:19.562Z,68.65
2022-09-12T09:30:19.554Z,66.44
2022-09-12T09:31:19.616Z,67.35
2022-09-12T09:32:19.510Z,68.08
2022-09-12T09:33:19.515Z,68.08
2022-09-12T09:34:19.510Z,67.98
2022-09-12T09:35:19.504Z,67.98
2022-09-12T09:36:19.472Z,67.18
2022-09-12T09:37:19.477Z,69.09
2022-09-12T09:38:19.448Z,68.49
2022-09-12T09:39:19.455Z,67.71
2022-09-12T09:40:19.542Z,66.31
2022-09-12T09:41:19.432Z,67.41
2022-09-12T09:42:19.409Z,68.41
2022-09-12T09:43:19.409Z,69.32
2022-09-12T09:44:19.399Z,70.03
2022-09-12T09:45:19.379Z,70.23
2022-09-12T09:46:19.434Z,69.42
2022-09-12T09:47:19.381Z,68.92
2022-09-12T09:48:19.362Z,69.29
2022-09-12T09:49:19.363Z,66.78
2022-09-12T09:50:19.321Z,67.88
2022-09-12T09:51:19.318Z,67.28
2022-09-12T09:52:19.315Z,67.05
2022-09-12T09:53:19.307Z,67.35
2022-09-12T09:54:19.301Z,65.14
2022-09-12T09:55:19.275Z,65.04
2022-09-12T09:56:21.509Z,66.24
2022-09-12T09:57:19.273Z,68.55
2022-09-12T09:58:19.271Z,67.25
2022-09-12T09:59:19.245Z,67.28
2022-09-12T10:00:19.230Z,65.47
2022-09-12T10:01:19.255Z,63.56
2022-09-12T10:02:23.260Z,62.93
2022-09-12T10:03:19.221Z,63.84
2022-09-12T10:04:19.211Z,64.54
2022-09-12T10:05:19.186Z,64.64
2022-09-12T10:06:19.152Z,66.67
2022-09-12T10:07:19.149Z,65.27
2022-09-12T10:08:19.139Z,66.58
2022-09-12T10:09:19.143Z,66.17
2022-09-12T10:10:19.129Z,67.78
2022-09-12T10:11:19.105Z,64.97
2022-09-12T10:12:19.088Z,67.38
2022-09-12T10:13:19.092Z,67.48
2022-09-12T10:14:19.080Z,67.48
2022-09-12T10:15:19.062Z,67.41
2022-09-12T10:16:19.104Z,68.12
2022-09-12T10:17:19.046Z,65.70
2022-09-12T10:18:19.029Z,65.60
2022-09-12T10:19:19.034Z,64.10
2022-09-12T10:20:21.894Z,66.81
2022-09-12T10:21:19.000Z,67.41
2022-09-12T10:22:19.004Z,68.32
2022-09-12T10:23:18.979Z,66.81
2022-09-12T10:24:18.986Z,67.98
2022-09-12T10:25:18.969Z,68.49
2022-09-12T10:26:18.946Z,66.78
2022-09-12T10:27:18.949Z,67.28
2022-09-12T10:28:18.923Z,63.17
2022-09-12T10:29:18.930Z,63.76
2022-09-12T10:30:18.901Z,64.17
2022-09-12T10:31:18.965Z,65.27
2022-09-12T10:32:18.887Z,65.77
2022-09-12T10:33:18.881Z,66.47
2022-09-12T10:34:18.901Z,65.74
2022-09-12T10:35:18.856Z,65.84
2022-09-12T10:36:18.841Z,65.64
2022-09-12T10:37:18.830Z,62.93
2022-09-12T10:38:18.826Z,61.83
2022-09-12T10:39:18.847Z,63.76
2022-09-12T10:40:18.836Z,63.87
2022-09-12T10:41:18.796Z,63.96
2022-09-12T10:42:23.297Z,64.14
2022-09-12T10:43:18.769Z,64.84
2022-09-12T10:44:18.773Z,64.43
2022-09-12T10:45:18.767Z,64.04
2022-09-12T10:46:18.808Z,63.31
2022-09-12T10:47:18.727Z,62.97
2022-09-12T10:48:18.716Z,61.94
2022-09-12T10:49:18.714Z,60.94
2022-09-12T10:50:22.808Z,60.36
2022-09-12T10:51:18.693Z,61.07
2022-09-12T10:52:18.682Z,60.97
2022-09-12T10:53:18.680Z,61.90
2022-09-12T10:54:18.660Z,62.00
2022-09-12T10:55:18.695Z,62.10
2022-09-12T10:56:18.635Z,61.50
2022-09-12T10:57:18.672Z,62.20
2022-09-12T10:58:18.657Z,64.01
2022-09-12T10:59:20.237Z,63.20
2022-09-12T11:00:18.658Z,62.20
2022-09-12T11:01:18.706Z,62.90
2022-09-12T11:02:18.625Z,62.77
2022-09-12T11:03:18.562Z,62.67
2022-09-12T11:04:18.661Z,62.17
2022-09-12T11:05:22.567Z,62.07
2022-09-12T11:06:18.590Z,61.67
2022-09-12T11:07:18.526Z,60.77
2022-09-12T11:08:18.518Z,60.86
2022-09-12T11:09:18.603Z,60.84
2022-09-12T11:10:18.500Z,61.64
2022-09-12T11:11:18.479Z,59.83
2022-09-12T11:12:18.477Z,61.44
2022-09-12T11:13:18.604Z,60.24
2022-09-12T11:14:18.460Z,59.74
2022-09-12T11:15:18.440Z,59.74
2022-09-12T11:16:18.662Z,59.94
2022-09-12T11:17:18.419Z,59.74
2022-09-12T11:18:18.399Z,59.33
2022-09-12T11:19:18.598Z,60.14
2022-09-12T11:20:19.300Z,59.53
2022-09-12T11:21:18.445Z,59.44
2022-09-12T11:22:18.594Z,60.03
2022-09-12T11:23:18.613Z,60.64
2022-09-12T11:24:18.464Z,61.17
2022-09-12T11:25:18.399Z,59.96
2022-09-12T11:26:18.332Z,59.94
2022-09-12T11:27:18.317Z,59.23
2022-09-12T11:28:18.301Z,58.83
2022-09-12T11:29:18.310Z,58.70
2022-09-12T11:30:18.609Z,59.41
2022-09-12T11:31:18.431Z,59.91
2022-09-12T11:32:18.266Z,59.20
2022-09-12T11:33:18.256Z,58.30
2022-09-12T11:34:18.248Z,58.20
2022-09-12T11:35:18.327Z,58.20
2022-09-12T11:36:18.216Z,59.00
2022-09-12T11:37:18.340Z,58.73
2022-09-12T11:38:18.187Z,58.63
2022-09-12T11:39:18.182Z,58.66
2022-09-12T11:40:18.272Z,59.06
2022-09-12T11:41:18.174Z,59.06
2022-09-12T11:42:18.149Z,58.66
2022-09-12T11:43:18.143Z,58.76
2022-09-12T11:44:18.160Z,59.56
2022-09-12T11:45:18.127Z,59.86
2022-09-12T11:46:18.294Z,61.07
2022-09-12T11:47:18.100Z,60.66
2022-09-12T11:48:18.083Z,60.57
2022-09-12T11:49:18.095Z,61.44
2022-09-12T11:50:18.075Z,62.14
2022-09-12T11:51:18.064Z,62.81
2022-09-12T11:52:18.049Z,60.21
2022-09-12T11:53:18.068Z,59.41
2022-09-12T11:54:18.045Z,58.61
2022-09-12T11:55:18.033Z,59.18
2022-09-12T11:56:18.026Z,59.48
2022-09-12T11:57:17.998Z,59.05
2022-09-12T11:58:17.984Z,57.75
2022-09-12T11:59:17.989Z,57.35
2022-09-12T12:00:17.963Z,58.35
2022-09-12T12:01:17.960Z,58.12
2022-09-12T12:02:18.003Z,57.82
2022-09-12T12:03:18.081Z,57.12
2022-09-12T12:04:17.927Z,58.12
2022-09-12T12:05:17.917Z,58.72
2022-09-12T12:06:17.924Z,58.32
2022-09-12T12:07:17.902Z,57.12
2022-09-12T12:08:17.890Z,57.09
2022-09-12T12:09:17.885Z,56.99
2022-09-12T12:10:17.857Z,55.82
2022-09-12T12:11:17.854Z,55.92
2022-09-12T12:12:17.838Z,56.22
2022-09-12T12:13:17.851Z,56.42
2022-09-12T12:14:17.829Z,55.65
2022-09-12T12:15:17.802Z,56.24
2022-09-12T12:16:17.855Z,56.55
2022-09-12T12:17:17.803Z,57.15
2022-09-12T12:18:17.789Z,57.05
2022-09-12T12:19:17.767Z,58.25
2022-09-12T12:20:17.767Z,56.65
2022-09-12T12:21:17.743Z,55.47
2022-09-12T12:22:17.735Z,56.77
2022-09-12T12:23:17.742Z,56.98
2022-09-12T12:24:17.712Z,57.68
2022-09-12T12:25:21.428Z,55.77
2022-09-12T12:26:17.701Z,55.57
2022-09-12T12:27:17.682Z,55.70
2022-09-12T12:28:17.685Z,56.50
2022-09-12T12:29:17.660Z,56.90
2022-09-12T12:30:17.666Z,57.00
2022-09-12T12:31:17.707Z,57.30
2022-09-12T12:32:17.624Z,57.00
2022-09-12T12:33:17.634Z,56.80
2022-09-12T12:34:17.605Z,57.07
2022-09-12T12:35:17.598Z,57.48
2022-09-12T12:36:17.599Z,56.77
2022-09-12T12:37:17.583Z,56.87
2022-09-12T12:38:17.575Z,56.74
2022-09-12T12:39:17.556Z,56.45
2022-09-12T12:40:17.581Z,55.32
2022-09-12T12:41:17.555Z,55.02
2022-09-12T12:42:20.082Z,55.69
2022-09-12T12:43:17.527Z,55.99
2022-09-12T12:44:17.497Z,55.79
2022-09-12T12:45:17.500Z,55.40
2022-09-12T12:46:17.582Z,54.42
2022-09-12T12:47:17.476Z,54.92
2022-09-12T12:48:17.475Z,55.72
2022-09-12T12:49:17.450Z,55.72
2022-09-12T12:50:17.450Z,56.42
2022-09-12T12:51:17.439Z,55.02
2022-09-12T12:52:17.429Z,54.62